sensor_id;sensor_type;location;lat;lon;timestamp;P1;durP1;ratioP1;P2;durP2;ratioP2
71038;SDS011;58692;43.212;27.908;2024-02-14T00:01:19;15.80;;;9.40;;
71038;SDS011;58692;43.212;27.908;2024-02-14T00:03:45;24.17;;;14.90;;
71038;SDS011;58692;43.212;27.908;2024-02-14T00:06:10;24.88;;;15.65;;
71038;SDS011;58692;43.212;27.908;2024-02-14T00:08:38;20.93;;;13.93;;
71038;SDS011;58692;43.212;27.908;2024-02-14T00:11:04;17.65;;;10.95;;
71038;SDS011;58692;43.212;27.908;2024-02-14T00:13:29;19.83;;;11.43;;
71038;SDS011;58692;43.212;27.908;2024-02-14T00:15:55;20.35;;;10.88;;
71038;SDS011;58692;43.212;27.908;2024-02-14T00:18:21;17.33;;;10.23;;
71038;SDS011;58692;43.212;27.908;2024-02-14T00:20:48;16.20;;;9.80;;
71038;SDS011;58692;43.212;27.908;2024-02-14T00:23:13;17.53;;;10.30;;
71038;SDS011;58692;43.212;27.908;2024-02-14T00:25:39;18.38;;;10.82;;
71038;SDS011;58692;43.212;27.908;2024-02-14T00:28:05;17.13;;;9.23;;
71038;SDS011;58692;43.212;27.908;2024-02-14T00:30:31;12.15;;;6.78;;
71038;SDS011;58692;43.212;27.908;2024-02-14T00:32:56;12.07;;;6.65;;
71038;SDS011;58692;43.212;27.908;2024-02-14T00:35:22;10.87;;;6.33;;
71038;SDS011;58692;43.212;27.908;2024-02-14T00:37:48;13.38;;;6.45;;
71038;SDS011;58692;43.212;27.908;2024-02-14T00:40:14;14.00;;;6.53;;
71038;SDS011;58692;43.212;27.908;2024-02-14T00:42:40;11.45;;;6.10;;
71038;SDS011;58692;43.212;27.908;2024-02-14T00:45:06;11.97;;;6.17;;
71038;SDS011;58692;43.212;27.908;2024-02-14T00:47:34;12.02;;;6.43;;
71038;SDS011;58692;43.212;27.908;2024-02-14T00:50:00;12.85;;;6.30;;
71038;SDS011;58692;43.212;27.908;2024-02-14T00:52:26;12.50;;;6.00;;
71038;SDS011;58692;43.212;27.908;2024-02-14T00:54:51;11.73;;;5.87;;
71038;SDS011;58692;43.212;27.908;2024-02-14T00:57:17;12.63;;;6.65;;
71038;SDS011;58692;43.212;27.908;2024-02-14T00:59:44;12.93;;;6.30;;
71038;SDS011;58692;43.212;27.908;2024-02-14T01:02:09;13.48;;;6.55;;
71038;SDS011;58692;43.212;27.908;2024-02-14T01:04:35;12.60;;;6.30;;
71038;SDS011;58692;43.212;27.908;2024-02-14T01:07:03;12.65;;;6.60;;
71038;SDS011;58692;43.212;27.908;2024-02-14T01:09:28;13.38;;;6.10;;
71038;SDS011;58692;43.212;27.908;2024-02-14T01:11:54;12.50;;;6.23;;
71038;SDS011;58692;43.212;27.908;2024-02-14T01:14:19;11.77;;;6.13;;
71038;SDS011;58692;43.212;27.908;2024-02-14T01:16:46;12.32;;;6.00;;
71038;SDS011;58692;43.212;27.908;2024-02-14T01:19:13;12.00;;;6.47;;
71038;SDS011;58692;43.212;27.908;2024-02-14T01:21:39;11.27;;;5.70;;
71038;SDS011;58692;43.212;27.908;2024-02-14T01:24:04;12.37;;;6.70;;
71038;SDS011;58692;43.212;27.908;2024-02-14T01:26:30;11.40;;;6.43;;
71038;SDS011;58692;43.212;27.908;2024-02-14T01:28:57;12.02;;;5.82;;
71038;SDS011;58692;43.212;27.908;2024-02-14T01:31:22;10.97;;;5.50;;
71038;SDS011;58692;43.212;27.908;2024-02-14T01:33:48;13.95;;;6.57;;
71038;SDS011;58692;43.212;27.908;2024-02-14T01:36:14;11.30;;;5.83;;
71038;SDS011;58692;43.212;27.908;2024-02-14T01:38:39;12.40;;;5.63;;
71038;SDS011;58692;43.212;27.908;2024-02-14T01:41:05;11.83;;;5.83;;
71038;SDS011;58692;43.212;27.908;2024-02-14T01:43:31;11.55;;;5.85;;
71038;SDS011;58692;43.212;27.908;2024-02-14T01:45:58;11.47;;;6.23;;
71038;SDS011;58692;43.212;27.908;2024-02-14T01:48:30;11.45;;;5.85;;
71038;SDS011;58692;43.212;27.908;2024-02-14T01:50:56;11.65;;;5.85;;
71038;SDS011;58692;43.212;27.908;2024-02-14T01:53:23;12.27;;;6.53;;
71038;SDS011;58692;43.212;27.908;2024-02-14T01:55:50;12.23;;;6.67;;
71038;SDS011;58692;43.212;27.908;2024-02-14T01:58:17;13.02;;;6.38;;
71038;SDS011;58692;43.212;27.908;2024-02-14T02:00:43;11.23;;;6.35;;
71038;SDS011;58692;43.212;27.908;2024-02-14T02:03:09;10.82;;;5.72;;
71038;SDS011;58692;43.212;27.908;2024-02-14T02:05:35;11.55;;;5.90;;
71038;SDS011;58692;43.212;27.908;2024-02-14T02:08:01;12.13;;;6.10;;
71038;SDS011;58692;43.212;27.908;2024-02-14T02:10:27;11.90;;;5.53;;
71038;SDS011;58692;43.212;27.908;2024-02-14T02:12:57;10.47;;;5.33;;
71038;SDS011;58692;43.212;27.908;2024-02-14T02:15:24;11.80;;;5.97;;
71038;SDS011;58692;43.212;27.908;2024-02-14T02:17:50;11.60;;;5.75;;
71038;SDS011;58692;43.212;27.908;2024-02-14T02:20:18;16.13;;;6.17;;
71038;SDS011;58692;43.212;27.908;2024-02-14T02:22:46;11.88;;;6.22;;
71038;SDS011;58692;43.212;27.908;2024-02-14T02:25:13;14.15;;;5.97;;
71038;SDS011;58692;43.212;27.908;2024-02-14T02:27:39;12.85;;;6.57;;
71038;SDS011;58692;43.212;27.908;2024-02-14T02:30:07;13.63;;;7.63;;
71038;SDS011;58692;43.212;27.908;2024-02-14T02:32:35;11.27;;;6.18;;
71038;SDS011;58692;43.212;27.908;2024-02-14T02:35:01;10.57;;;5.68;;
71038;SDS011;58692;43.212;27.908;2024-02-14T02:37:28;11.97;;;6.00;;
71038;SDS011;58692;43.212;27.908;2024-02-14T02:39:55;12.05;;;5.70;;
71038;SDS011;58692;43.212;27.908;2024-02-14T02:42:21;11.00;;;6.03;;
71038;SDS011;58692;43.212;27.908;2024-02-14T02:44:48;10.20;;;5.45;;
71038;SDS011;58692;43.212;27.908;2024-02-14T02:47:16;9.93;;;5.00;;
71038;SDS011;58692;43.212;27.908;2024-02-14T02:49:43;9.30;;;5.07;;
71038;SDS011;58692;43.212;27.908;2024-02-14T02:52:10;9.05;;;5.00;;
71038;SDS011;58692;43.212;27.908;2024-02-14T02:54:36;11.00;;;5.50;;
71038;SDS011;58692;43.212;27.908;2024-02-14T02:57:06;10.57;;;5.47;;
71038;SDS011;58692;43.212;27.908;2024-02-14T02:59:33;9.13;;;5.10;;
71038;SDS011;58692;43.212;27.908;2024-02-14T03:02:00;9.25;;;5.00;;
71038;SDS011;58692;43.212;27.908;2024-02-14T03:04:26;9.60;;;5.20;;
71038;SDS011;58692;43.212;27.908;2024-02-14T03:06:51;8.70;;;4.20;;
71038;SDS011;58692;43.212;27.908;2024-02-14T03:09:17;8.47;;;4.60;;
71038;SDS011;58692;43.212;27.908;2024-02-14T03:11:47;9.05;;;5.00;;
71038;SDS011;58692;43.212;27.908;2024-02-14T03:14:13;8.25;;;4.38;;
71038;SDS011;58692;43.212;27.908;2024-02-14T03:16:39;7.22;;;4.10;;
71038;SDS011;58692;43.212;27.908;2024-02-14T03:19:04;7.63;;;4.27;;
71038;SDS011;58692;43.212;27.908;2024-02-14T03:21:30;9.90;;;4.43;;
71038;SDS011;58692;43.212;27.908;2024-02-14T03:24:00;6.75;;;3.88;;
71038;SDS011;58692;43.212;27.908;2024-02-14T03:26:28;7.72;;;4.15;;
71038;SDS011;58692;43.212;27.908;2024-02-14T03:28:54;9.47;;;4.33;;
71038;SDS011;58692;43.212;27.908;2024-02-14T03:31:19;8.38;;;4.30;;
71038;SDS011;58692;43.212;27.908;2024-02-14T03:33:45;7.80;;;3.95;;
71038;SDS011;58692;43.212;27.908;2024-02-14T03:36:11;6.37;;;3.43;;
71038;SDS011;58692;43.212;27.908;2024-02-14T03:38:37;6.43;;;3.70;;
71038;SDS011;58692;43.212;27.908;2024-02-14T03:41:04;6.93;;;3.28;;
71038;SDS011;58692;43.212;27.908;2024-02-14T03:43:30;7.40;;;3.50;;
71038;SDS011;58692;43.212;27.908;2024-02-14T03:45:57;7.28;;;3.67;;
71038;SDS011;58692;43.212;27.908;2024-02-14T03:48:22;6.63;;;3.53;;
71038;SDS011;58692;43.212;27.908;2024-02-14T03:50:48;7.53;;;3.80;;
71038;SDS011;58692;43.212;27.908;2024-02-14T03:53:13;8.10;;;3.63;;
71038;SDS011;58692;43.212;27.908;2024-02-14T03:55:40;7.13;;;3.60;;
71038;SDS011;58692;43.212;27.908;2024-02-14T03:58:06;7.15;;;3.28;;
71038;SDS011;58692;43.212;27.908;2024-02-14T04:00:33;6.45;;;3.45;;
71038;SDS011;58692;43.212;27.908;2024-02-14T04:03:00;6.47;;;3.25;;
71038;SDS011;58692;43.212;27.908;2024-02-14T04:05:27;7.43;;;3.53;;
71038;SDS011;58692;43.212;27.908;2024-02-14T04:07:54;8.02;;;3.70;;
71038;SDS011;58692;43.212;27.908;2024-02-14T04:10:20;7.95;;;3.83;;
71038;SDS011;58692;43.212;27.908;2024-02-14T04:12:47;7.85;;;3.90;;
71038;SDS011;58692;43.212;27.908;2024-02-14T04:15:13;6.80;;;3.60;;
71038;SDS011;58692;43.212;27.908;2024-02-14T04:17:39;7.28;;;3.50;;
71038;SDS011;58692;43.212;27.908;2024-02-14T04:20:05;7.10;;;3.40;;
71038;SDS011;58692;43.212;27.908;2024-02-14T04:22:31;8.10;;;3.93;;
71038;SDS011;58692;43.212;27.908;2024-02-14T04:24:57;8.98;;;3.75;;
71038;SDS011;58692;43.212;27.908;2024-02-14T04:27:22;7.07;;;3.53;;
71038;SDS011;58692;43.212;27.908;2024-02-14T04:29:48;8.00;;;3.43;;
71038;SDS011;58692;43.212;27.908;2024-02-14T04:32:14;9.32;;;4.13;;
71038;SDS011;58692;43.212;27.908;2024-02-14T04:34:40;8.40;;;3.50;;
71038;SDS011;58692;43.212;27.908;2024-02-14T04:37:07;6.93;;;3.20;;
71038;SDS011;58692;43.212;27.908;2024-02-14T04:39:35;11.53;;;4.20;;
71038;SDS011;58692;43.212;27.908;2024-02-14T04:42:01;11.07;;;4.65;;
71038;SDS011;58692;43.212;27.908;2024-02-14T04:44:29;13.38;;;4.65;;
71038;SDS011;58692;43.212;27.908;2024-02-14T04:46:54;7.38;;;3.40;;
71038;SDS011;58692;43.212;27.908;2024-02-14T04:49:21;9.18;;;3.53;;
71038;SDS011;58692;43.212;27.908;2024-02-14T04:51:46;8.70;;;4.00;;
71038;SDS011;58692;43.212;27.908;2024-02-14T04:54:12;14.57;;;4.20;;
71038;SDS011;58692;43.212;27.908;2024-02-14T04:56:38;7.32;;;3.47;;
71038;SDS011;58692;43.212;27.908;2024-02-14T04:59:04;11.57;;;3.90;;
71038;SDS011;58692;43.212;27.908;2024-02-14T05:01:30;10.03;;;3.40;;
71038;SDS011;58692;43.212;27.908;2024-02-14T05:03:56;9.32;;;3.60;;
71038;SDS011;58692;43.212;27.908;2024-02-14T05:06:22;8.97;;;3.27;;
71038;SDS011;58692;43.212;27.908;2024-02-14T05:08:47;9.98;;;3.40;;
71038;SDS011;58692;43.212;27.908;2024-02-14T05:11:13;9.27;;;3.43;;
71038;SDS011;58692;43.212;27.908;2024-02-14T05:13:39;9.95;;;3.47;;
71038;SDS011;58692;43.212;27.908;2024-02-14T05:16:06;7.80;;;3.42;;
71038;SDS011;58692;43.212;27.908;2024-02-14T05:18:34;8.98;;;4.00;;
71038;SDS011;58692;43.212;27.908;2024-02-14T05:20:59;7.43;;;3.10;;
71038;SDS011;58692;43.212;27.908;2024-02-14T05:23:25;13.73;;;4.23;;
71038;SDS011;58692;43.212;27.908;2024-02-14T05:25:50;12.27;;;4.30;;
71038;SDS011;58692;43.212;27.908;2024-02-14T05:28:16;8.07;;;4.13;;
71038;SDS011;58692;43.212;27.908;2024-02-14T05:30:43;10.98;;;3.60;;
71038;SDS011;58692;43.212;27.908;2024-02-14T05:33:10;11.57;;;3.97;;
71038;SDS011;58692;43.212;27.908;2024-02-14T05:35:36;7.70;;;3.72;;
71038;SDS011;58692;43.212;27.908;2024-02-14T05:38:02;8.33;;;3.30;;
71038;SDS011;58692;43.212;27.908;2024-02-14T05:40:29;7.07;;;3.20;;
71038;SDS011;58692;43.212;27.908;2024-02-14T05:42:55;7.57;;;3.28;;
71038;SDS011;58692;43.212;27.908;2024-02-14T05:45:21;8.30;;;3.63;;
71038;SDS011;58692;43.212;27.908;2024-02-14T05:47:47;11.07;;;4.10;;
71038;SDS011;58692;43.212;27.908;2024-02-14T05:50:12;12.10;;;4.97;;
71038;SDS011;58692;43.212;27.908;2024-02-14T05:52:38;9.15;;;4.40;;
71038;SDS011;58692;43.212;27.908;2024-02-14T05:55:04;10.47;;;3.97;;
71038;SDS011;58692;43.212;27.908;2024-02-14T05:57:31;15.25;;;4.65;;
71038;SDS011;58692;43.212;27.908;2024-02-14T05:59:56;10.30;;;4.10;;
71038;SDS011;58692;43.212;27.908;2024-02-14T06:02:22;12.33;;;4.70;;
71038;SDS011;58692;43.212;27.908;2024-02-14T06:04:47;20.02;;;6.88;;
71038;SDS011;58692;43.212;27.908;2024-02-14T06:07:13;10.63;;;4.80;;
71038;SDS011;58692;43.212;27.908;2024-02-14T06:09:38;14.77;;;5.47;;
71038;SDS011;58692;43.212;27.908;2024-02-14T06:12:04;10.75;;;5.07;;
71038;SDS011;58692;43.212;27.908;2024-02-14T06:14:31;12.43;;;4.50;;
71038;SDS011;58692;43.212;27.908;2024-02-14T06:16:59;12.93;;;5.60;;
71038;SDS011;58692;43.212;27.908;2024-02-14T06:19:26;11.25;;;5.20;;
71038;SDS011;58692;43.212;27.908;2024-02-14T06:21:51;13.10;;;5.35;;
71038;SDS011;58692;43.212;27.908;2024-02-14T06:24:17;10.90;;;4.87;;
71038;SDS011;58692;43.212;27.908;2024-02-14T06:26:44;12.73;;;4.95;;
71038;SDS011;58692;43.212;27.908;2024-02-14T06:29:10;11.13;;;5.05;;
71038;SDS011;58692;43.212;27.908;2024-02-14T06:31:36;10.10;;;4.80;;
71038;SDS011;58692;43.212;27.908;2024-02-14T06:34:01;18.05;;;5.32;;
71038;SDS011;58692;43.212;27.908;2024-02-14T06:36:28;14.65;;;5.72;;
71038;SDS011;58692;43.212;27.908;2024-02-14T06:38:54;13.67;;;5.97;;
71038;SDS011;58692;43.212;27.908;2024-02-14T06:41:20;13.27;;;4.90;;
71038;SDS011;58692;43.212;27.908;2024-02-14T06:43:46;11.37;;;5.00;;
71038;SDS011;58692;43.212;27.908;2024-02-14T06:46:14;9.23;;;4.53;;
71038;SDS011;58692;43.212;27.908;2024-02-14T06:48:40;9.77;;;4.97;;
71038;SDS011;58692;43.212;27.908;2024-02-14T06:51:06;9.97;;;4.70;;
71038;SDS011;58692;43.212;27.908;2024-02-14T06:53:34;12.77;;;5.25;;
71038;SDS011;58692;43.212;27.908;2024-02-14T06:56:00;11.27;;;5.20;;
71038;SDS011;58692;43.212;27.908;2024-02-14T06:58:26;11.10;;;4.63;;
71038;SDS011;58692;43.212;27.908;2024-02-14T07:00:51;10.77;;;5.63;;
71038;SDS011;58692;43.212;27.908;2024-02-14T07:03:17;10.10;;;5.60;;
71038;SDS011;58692;43.212;27.908;2024-02-14T07:05:43;19.97;;;6.23;;
71038;SDS011;58692;43.212;27.908;2024-02-14T07:08:08;15.73;;;7.47;;
71038;SDS011;58692;43.212;27.908;2024-02-14T07:10:54;14.50;;;6.10;;
71038;SDS011;58692;43.212;27.908;2024-02-14T07:13:24;9.20;;;5.28;;
71038;SDS011;58692;43.212;27.908;2024-02-14T07:15:49;11.97;;;5.40;;
71038;SDS011;58692;43.212;27.908;2024-02-14T07:18:15;13.73;;;5.10;;
71038;SDS011;58692;43.212;27.908;2024-02-14T07:20:40;9.43;;;4.97;;
71038;SDS011;58692;43.212;27.908;2024-02-14T07:23:06;9.80;;;4.07;;
71038;SDS011;58692;43.212;27.908;2024-02-14T07:25:33;9.23;;;4.50;;
71038;SDS011;58692;43.212;27.908;2024-02-14T07:27:58;16.13;;;4.50;;
71038;SDS011;58692;43.212;27.908;2024-02-14T07:30:24;10.17;;;4.77;;
71038;SDS011;58692;43.212;27.908;2024-02-14T07:35:50;7.93;;;3.42;;
71038;SDS011;58692;43.212;27.908;2024-02-14T07:38:19;7.73;;;3.73;;
71038;SDS011;58692;43.212;27.908;2024-02-14T07:41:13;7.65;;;3.78;;
71038;SDS011;58692;43.212;27.908;2024-02-14T07:43:45;11.73;;;4.63;;
71038;SDS011;58692;43.212;27.908;2024-02-14T07:46:24;7.65;;;4.05;;
71038;SDS011;58692;43.212;27.908;2024-02-14T07:48:52;10.63;;;4.53;;
71038;SDS011;58692;43.212;27.908;2024-02-14T07:51:19;8.17;;;3.57;;
71038;SDS011;58692;43.212;27.908;2024-02-14T07:53:44;14.02;;;4.45;;
71038;SDS011;58692;43.212;27.908;2024-02-14T07:56:10;9.73;;;4.15;;
71038;SDS011;58692;43.212;27.908;2024-02-14T07:58:36;11.97;;;4.43;;
71038;SDS011;58692;43.212;27.908;2024-02-14T08:01:02;18.05;;;4.45;;
71038;SDS011;58692;43.212;27.908;2024-02-14T08:03:30;9.93;;;4.03;;
71038;SDS011;58692;43.212;27.908;2024-02-14T08:05:55;9.47;;;3.57;;
71038;SDS011;58692;43.212;27.908;2024-02-14T08:08:21;7.57;;;3.90;;
71038;SDS011;58692;43.212;27.908;2024-02-14T08:10:48;9.20;;;3.88;;
71038;SDS011;58692;43.212;27.908;2024-02-14T08:13:14;9.57;;;4.20;;
71038;SDS011;58692;43.212;27.908;2024-02-14T08:18:29;7.03;;;2.90;;
71038;SDS011;58692;43.212;27.908;2024-02-14T08:20:55;7.57;;;3.20;;
71038;SDS011;58692;43.212;27.908;2024-02-14T08:23:21;10.23;;;3.03;;
71038;SDS011;58692;43.212;27.908;2024-02-14T08:25:46;8.27;;;3.30;;
71038;SDS011;58692;43.212;27.908;2024-02-14T08:28:14;6.93;;;2.72;;
71038;SDS011;58692;43.212;27.908;2024-02-14T08:30:40;7.90;;;2.78;;
71038;SDS011;58692;43.212;27.908;2024-02-14T08:33:06;8.13;;;3.10;;
71038;SDS011;58692;43.212;27.908;2024-02-14T08:35:32;6.20;;;2.50;;
71038;SDS011;58692;43.212;27.908;2024-02-14T08:37:59;5.30;;;2.50;;
71038;SDS011;58692;43.212;27.908;2024-02-14T08:40:25;6.80;;;2.70;;
71038;SDS011;58692;43.212;27.908;2024-02-14T08:42:53;6.93;;;2.60;;
71038;SDS011;58692;43.212;27.908;2024-02-14T08:45:19;14.87;;;2.90;;
71038;SDS011;58692;43.212;27.908;2024-02-14T08:47:46;6.97;;;2.80;;
71038;SDS011;58692;43.212;27.908;2024-02-14T08:50:12;9.10;;;2.80;;
71038;SDS011;58692;43.212;27.908;2024-02-14T08:52:39;6.47;;;2.37;;
71038;SDS011;58692;43.212;27.908;2024-02-14T08:55:10;6.75;;;2.40;;
71038;SDS011;58692;43.212;27.908;2024-02-14T08:57:47;10.38;;;3.00;;
71038;SDS011;58692;43.212;27.908;2024-02-14T09:00:13;7.90;;;3.27;;
71038;SDS011;58692;43.212;27.908;2024-02-14T09:02:43;8.32;;;3.10;;
71038;SDS011;58692;43.212;27.908;2024-02-14T09:05:09;6.15;;;2.75;;
71038;SDS011;58692;43.212;27.908;2024-02-14T09:07:35;5.33;;;2.40;;
71038;SDS011;58692;43.212;27.908;2024-02-14T09:10:01;6.88;;;2.58;;
71038;SDS011;58692;43.212;27.908;2024-02-14T09:12:27;7.28;;;2.70;;
71038;SDS011;58692;43.212;27.908;2024-02-14T09:14:53;8.97;;;3.03;;
71038;SDS011;58692;43.212;27.908;2024-02-14T09:17:19;6.82;;;2.72;;
71038;SDS011;58692;43.212;27.908;2024-02-14T09:19:44;5.83;;;2.30;;
71038;SDS011;58692;43.212;27.908;2024-02-14T09:22:10;6.55;;;2.63;;
71038;SDS011;58692;43.212;27.908;2024-02-14T09:24:36;7.87;;;2.30;;
71038;SDS011;58692;43.212;27.908;2024-02-14T09:27:01;7.60;;;3.20;;
71038;SDS011;58692;43.212;27.908;2024-02-14T09:29:27;7.50;;;3.13;;
71038;SDS011;58692;43.212;27.908;2024-02-14T09:31:54;10.15;;;3.05;;
71038;SDS011;58692;43.212;27.908;2024-02-14T09:34:19;6.20;;;2.72;;
71038;SDS011;58692;43.212;27.908;2024-02-14T09:36:47;6.70;;;2.47;;
71038;SDS011;58692;43.212;27.908;2024-02-14T09:39:14;7.35;;;2.85;;
71038;SDS011;58692;43.212;27.908;2024-02-14T09:41:42;6.40;;;2.20;;
71038;SDS011;58692;43.212;27.908;2024-02-14T09:44:09;5.72;;;2.30;;
71038;SDS011;58692;43.212;27.908;2024-02-14T09:46:35;7.43;;;2.60;;
71038;SDS011;58692;43.212;27.908;2024-02-14T09:49:02;6.82;;;2.40;;
71038;SDS011;58692;43.212;27.908;2024-02-14T09:51:29;6.90;;;2.40;;
71038;SDS011;58692;43.212;27.908;2024-02-14T09:53:55;9.80;;;3.10;;
71038;SDS011;58692;43.212;27.908;2024-02-14T09:56:24;7.37;;;2.37;;
71038;SDS011;58692;43.212;27.908;2024-02-14T09:58:50;5.93;;;2.30;;
71038;SDS011;58692;43.212;27.908;2024-02-14T10:01:23;6.80;;;2.30;;
71038;SDS011;58692;43.212;27.908;2024-02-14T10:03:55;5.40;;;2.17;;
71038;SDS011;58692;43.212;27.908;2024-02-14T10:06:21;5.63;;;2.37;;
71038;SDS011;58692;43.212;27.908;2024-02-14T10:08:48;6.00;;;2.53;;
71038;SDS011;58692;43.212;27.908;2024-02-14T10:11:16;6.40;;;2.60;;
71038;SDS011;58692;43.212;27.908;2024-02-14T10:13:44;8.38;;;2.63;;
71038;SDS011;58692;43.212;27.908;2024-02-14T10:16:11;7.47;;;2.78;;
71038;SDS011;58692;43.212;27.908;2024-02-14T10:18:38;7.23;;;2.53;;
71038;SDS011;58692;43.212;27.908;2024-02-14T10:21:06;7.18;;;2.22;;
71038;SDS011;58692;43.212;27.908;2024-02-14T10:23:33;5.10;;;2.45;;
71038;SDS011;58692;43.212;27.908;2024-02-14T10:25:59;6.20;;;2.50;;
71038;SDS011;58692;43.212;27.908;2024-02-14T10:28:25;7.47;;;2.55;;
71038;SDS011;58692;43.212;27.908;2024-02-14T10:30:51;6.43;;;2.60;;
71038;SDS011;58692;43.212;27.908;2024-02-14T10:33:35;8.33;;;2.50;;
71038;SDS011;58692;43.212;27.908;2024-02-14T10:36:01;6.43;;;2.78;;
71038;SDS011;58692;43.212;27.908;2024-02-14T10:38:30;7.40;;;2.53;;
71038;SDS011;58692;43.212;27.908;2024-02-14T10:41:01;5.82;;;2.53;;
71038;SDS011;58692;43.212;27.908;2024-02-14T10:43:27;7.00;;;2.70;;
71038;SDS011;58692;43.212;27.908;2024-02-14T10:45:54;6.65;;;2.40;;
71038;SDS011;58692;43.212;27.908;2024-02-14T10:48:22;7.57;;;2.60;;
71038;SDS011;58692;43.212;27.908;2024-02-14T10:50:52;5.78;;;2.20;;
71038;SDS011;58692;43.212;27.908;2024-02-14T10:53:19;8.60;;;2.70;;
71038;SDS011;58692;43.212;27.908;2024-02-14T10:55:46;5.93;;;2.30;;
71038;SDS011;58692;43.212;27.908;2024-02-14T10:58:17;5.25;;;2.40;;
71038;SDS011;58692;43.212;27.908;2024-02-14T11:00:44;6.65;;;2.35;;
71038;SDS011;58692;43.212;27.908;2024-02-14T11:03:12;6.38;;;2.55;;
71038;SDS011;58692;43.212;27.908;2024-02-14T11:05:48;5.25;;;2.03;;
71038;SDS011;58692;43.212;27.908;2024-02-14T11:08:15;5.60;;;2.00;;
71038;SDS011;58692;43.212;27.908;2024-02-14T11:10:54;6.00;;;2.03;;
71038;SDS011;58692;43.212;27.908;2024-02-14T11:13:44;4.32;;;1.67;;
71038;SDS011;58692;43.212;27.908;2024-02-14T11:16:09;6.83;;;2.03;;
71038;SDS011;58692;43.212;27.908;2024-02-14T11:18:39;5.10;;;2.00;;
71038;SDS011;58692;43.212;27.908;2024-02-14T11:21:15;5.72;;;2.30;;
71038;SDS011;58692;43.212;27.908;2024-02-14T11:23:41;4.40;;;1.80;;
71038;SDS011;58692;43.212;27.908;2024-02-14T11:26:40;5.55;;;1.73;;
71038;SDS011;58692;43.212;27.908;2024-02-14T11:29:16;5.07;;;1.97;;
71038;SDS011;58692;43.212;27.908;2024-02-14T11:31:44;3.67;;;1.75;;
71038;SDS011;58692;43.212;27.908;2024-02-14T11:34:11;5.80;;;2.00;;
71038;SDS011;58692;43.212;27.908;2024-02-14T11:36:38;6.38;;;2.10;;
71038;SDS011;58692;43.212;27.908;2024-02-14T11:39:06;6.88;;;2.00;;
71038;SDS011;58692;43.212;27.908;2024-02-14T11:41:32;5.70;;;2.17;;
71038;SDS011;58692;43.212;27.908;2024-02-14T11:44:03;7.78;;;2.45;;
71038;SDS011;58692;43.212;27.908;2024-02-14T11:46:30;6.25;;;2.00;;
71038;SDS011;58692;43.212;27.908;2024-02-14T11:48:59;8.52;;;2.33;;
71038;SDS011;58692;43.212;27.908;2024-02-14T11:51:28;6.07;;;2.20;;
71038;SDS011;58692;43.212;27.908;2024-02-14T11:54:13;6.03;;;2.30;;
71038;SDS011;58692;43.212;27.908;2024-02-14T11:56:40;8.75;;;2.20;;
71038;SDS011;58692;43.212;27.908;2024-02-14T11:59:06;4.70;;;2.10;;
71038;SDS011;58692;43.212;27.908;2024-02-14T12:01:34;4.50;;;2.03;;
71038;SDS011;58692;43.212;27.908;2024-02-14T12:04:01;4.13;;;1.80;;
71038;SDS011;58692;43.212;27.908;2024-02-14T12:06:29;5.53;;;1.95;;
71038;SDS011;58692;43.212;27.908;2024-02-14T12:08:57;5.07;;;1.70;;
71038;SDS011;58692;43.212;27.908;2024-02-14T12:11:30;5.13;;;1.90;;
71038;SDS011;58692;43.212;27.908;2024-02-14T12:14:00;6.00;;;1.98;;
71038;SDS011;58692;43.212;27.908;2024-02-14T12:16:31;3.20;;;1.50;;
71038;SDS011;58692;43.212;27.908;2024-02-14T12:19:09;3.53;;;1.40;;
71038;SDS011;58692;43.212;27.908;2024-02-14T12:21:40;4.05;;;1.73;;
71038;SDS011;58692;43.212;27.908;2024-02-14T12:24:09;4.72;;;1.38;;
71038;SDS011;58692;43.212;27.908;2024-02-14T12:26:36;4.30;;;1.55;;
71038;SDS011;58692;43.212;27.908;2024-02-14T12:29:03;4.93;;;1.80;;
71038;SDS011;58692;43.212;27.908;2024-02-14T12:31:29;5.95;;;1.90;;
71038;SDS011;58692;43.212;27.908;2024-02-14T12:33:57;5.15;;;1.80;;
71038;SDS011;58692;43.212;27.908;2024-02-14T12:36:27;5.40;;;1.80;;
71038;SDS011;58692;43.212;27.908;2024-02-14T12:38:54;5.18;;;1.70;;
71038;SDS011;58692;43.212;27.908;2024-02-14T12:41:20;7.13;;;2.27;;
71038;SDS011;58692;43.212;27.908;2024-02-14T12:43:47;7.35;;;2.28;;
71038;SDS011;58692;43.212;27.908;2024-02-14T12:46:13;5.20;;;2.00;;
71038;SDS011;58692;43.212;27.908;2024-02-14T12:48:39;5.82;;;2.13;;
71038;SDS011;58692;43.212;27.908;2024-02-14T12:51:05;4.10;;;1.77;;
71038;SDS011;58692;43.212;27.908;2024-02-14T12:53:30;4.90;;;1.85;;
71038;SDS011;58692;43.212;27.908;2024-02-14T12:55:57;7.27;;;2.23;;
71038;SDS011;58692;43.212;27.908;2024-02-14T12:58:33;4.90;;;1.85;;
71038;SDS011;58692;43.212;27.908;2024-02-14T13:01:42;4.82;;;1.88;;
71038;SDS011;58692;43.212;27.908;2024-02-14T13:04:24;10.30;;;2.65;;
71038;SDS011;58692;43.212;27.908;2024-02-14T13:06:53;5.50;;;2.37;;
71038;SDS011;58692;43.212;27.908;2024-02-14T13:12:31;5.78;;;2.20;;
71038;SDS011;58692;43.212;27.908;2024-02-14T13:18:13;5.43;;;2.10;;
71038;SDS011;58692;43.212;27.908;2024-02-14T13:20:46;5.03;;;2.00;;
71038;SDS011;58692;43.212;27.908;2024-02-14T13:23:20;7.05;;;1.90;;
71038;SDS011;58692;43.212;27.908;2024-02-14T13:25:50;6.78;;;2.40;;
71038;SDS011;58692;43.212;27.908;2024-02-14T13:28:27;7.55;;;2.28;;
71038;SDS011;58692;43.212;27.908;2024-02-14T13:31:05;6.43;;;2.60;;
71038;SDS011;58692;43.212;27.908;2024-02-14T13:33:50;7.20;;;2.23;;
71038;SDS011;58692;43.212;27.908;2024-02-14T13:36:16;6.97;;;3.03;;
71038;SDS011;58692;43.212;27.908;2024-02-14T13:38:42;7.43;;;2.70;;
71038;SDS011;58692;43.212;27.908;2024-02-14T13:41:10;6.22;;;2.63;;
71038;SDS011;58692;43.212;27.908;2024-02-14T13:43:38;7.15;;;2.50;;
71038;SDS011;58692;43.212;27.908;2024-02-14T13:46:09;10.43;;;2.73;;
71038;SDS011;58692;43.212;27.908;2024-02-14T13:48:35;4.65;;;2.25;;
71038;SDS011;58692;43.212;27.908;2024-02-14T13:51:00;6.83;;;3.03;;
71038;SDS011;58692;43.212;27.908;2024-02-14T13:53:28;5.20;;;2.30;;
71038;SDS011;58692;43.212;27.908;2024-02-14T13:55:54;6.05;;;2.90;;
71038;SDS011;58692;43.212;27.908;2024-02-14T13:58:38;5.20;;;2.38;;
71038;SDS011;58692;43.212;27.908;2024-02-14T14:01:28;7.20;;;2.53;;
71038;SDS011;58692;43.212;27.908;2024-02-14T14:03:59;5.80;;;2.70;;
71038;SDS011;58692;43.212;27.908;2024-02-14T14:06:28;8.02;;;2.80;;
71038;SDS011;58692;43.212;27.908;2024-02-14T14:08:54;6.82;;;3.00;;
71038;SDS011;58692;43.212;27.908;2024-02-14T14:11:20;10.33;;;3.50;;
71038;SDS011;58692;43.212;27.908;2024-02-14T14:13:46;7.85;;;3.20;;
71038;SDS011;58692;43.212;27.908;2024-02-14T14:16:11;6.97;;;3.50;;
71038;SDS011;58692;43.212;27.908;2024-02-14T14:18:37;6.63;;;3.13;;
71038;SDS011;58692;43.212;27.908;2024-02-14T14:21:04;6.70;;;2.97;;
71038;SDS011;58692;43.212;27.908;2024-02-14T14:23:30;7.03;;;3.27;;
71038;SDS011;58692;43.212;27.908;2024-02-14T14:25:57;8.40;;;3.65;;
71038;SDS011;58692;43.212;27.908;2024-02-14T14:28:24;7.45;;;4.03;;
71038;SDS011;58692;43.212;27.908;2024-02-14T14:30:50;9.73;;;3.55;;
71038;SDS011;58692;43.212;27.908;2024-02-14T14:33:18;6.28;;;3.00;;
71038;SDS011;58692;43.212;27.908;2024-02-14T14:35:47;9.10;;;3.13;;
71038;SDS011;58692;43.212;27.908;2024-02-14T14:38:19;6.50;;;2.92;;
71038;SDS011;58692;43.212;27.908;2024-02-14T14:40:51;9.77;;;3.20;;
71038;SDS011;58692;43.212;27.908;2024-02-14T14:43:25;7.10;;;3.20;;